createdAt,value
2023-04-13T00:00:02.972Z,4.90
2023-04-13T00:01:02.835Z,3.70
2023-04-13T00:02:02.870Z,2.40
2023-04-13T00:03:02.941Z,2.70
2023-04-13T00:04:03.292Z,2.30
2023-04-13T00:05:02.824Z,4.70
2023-04-13T00:06:02.754Z,2.50
2023-04-13T00:07:02.769Z,3.50
2023-04-13T00:08:02.788Z,1.20
2023-04-13T00:09:02.705Z,1.60
2023-04-13T00:10:02.694Z,1.80
2023-04-13T00:11:02.704Z,3.00
2023-04-13T00:12:02.726Z,2.60
2023-04-13T00:13:02.672Z,2.00
2023-04-13T00:14:02.778Z,2.00
2023-04-13T00:15:02.684Z,2.70
2023-04-13T00:16:02.595Z,1.70
2023-04-13T00:17:02.751Z,2.20
2023-04-13T00:18:02.640Z,3.20
2023-04-13T00:19:02.574Z,3.30
2023-04-13T00:20:02.621Z,2.20
2023-04-13T00:21:02.535Z,2.30
2023-04-13T00:22:02.555Z,2.20
2023-04-13T00:23:02.536Z,2.20
2023-04-13T00:24:02.510Z,3.10
2023-04-13T00:25:02.503Z,1.70
2023-04-13T00:26:02.493Z,2.60
2023-04-13T00:27:02.487Z,3.00
2023-04-13T00:28:02.463Z,4.30
2023-04-13T00:29:02.454Z,1.80
2023-04-13T00:30:02.461Z,3.20
2023-04-13T00:31:02.441Z,1.70
2023-04-13T00:32:02.425Z,6.60
2023-04-13T00:33:02.434Z,3.30
2023-04-13T00:34:02.405Z,4.00
2023-04-13T00:35:02.345Z,3.00
2023-04-13T00:36:02.358Z,3.80
2023-04-13T00:37:02.349Z,2.00
2023-04-13T00:38:02.334Z,1.50
2023-04-13T00:39:02.380Z,3.60
2023-04-13T00:40:02.358Z,3.90
2023-04-13T00:41:02.278Z,2.70
2023-04-13T00:42:02.314Z,2.00
2023-04-13T00:43:02.587Z,4.90
2023-04-13T00:44:02.279Z,3.20
2023-04-13T00:45:02.240Z,3.60
2023-04-13T00:46:02.304Z,4.60
2023-04-13T00:47:02.220Z,2.70
2023-04-13T00:48:02.267Z,1.40
2023-04-13T00:49:02.167Z,3.10
2023-04-13T00:50:02.197Z,2.20
2023-04-13T00:51:02.161Z,1.80
2023-04-13T00:52:02.143Z,1.80
2023-04-13T00:53:02.103Z,2.90
2023-04-13T00:54:02.147Z,1.80
2023-04-13T00:55:02.102Z,2.10
2023-04-13T00:56:02.118Z,1.90
2023-04-13T00:57:02.074Z,2.60
2023-04-13T00:58:02.090Z,3.50
2023-04-13T00:59:02.094Z,3.30
2023-04-13T01:00:02.117Z,5.50
2023-04-13T01:01:02.027Z,3.60
2023-04-13T01:02:08.318Z,2.30
2023-04-13T01:03:02.214Z,2.70
2023-04-13T01:04:02.094Z,2.50
2023-04-13T01:05:01.972Z,3.10
2023-04-13T01:06:01.999Z,3.80
2023-04-13T01:07:01.920Z,3.30
2023-04-13T01:08:02.064Z,2.40
2023-04-13T01:09:01.900Z,2.90
2023-04-13T01:10:01.997Z,3.30
2023-04-13T01:11:01.896Z,3.60
2023-04-13T01:12:01.927Z,2.70
2023-04-13T01:13:01.848Z,2.70
2023-04-13T01:14:02.130Z,3.30
2023-04-13T01:15:01.821Z,2.10
2023-04-13T01:16:01.882Z,2.80
2023-04-13T01:17:01.790Z,1.60
2023-04-13T01:18:01.912Z,2.70
2023-04-13T01:19:01.755Z,2.20
2023-04-13T01:20:01.882Z,1.80
2023-04-13T01:21:01.780Z,3.70
2023-04-13T01:22:01.801Z,3.90
2023-04-13T01:23:01.728Z,4.70
2023-04-13T01:24:01.748Z,5.60
2023-04-13T01:25:01.711Z,1.70
2023-04-13T01:26:01.813Z,2.70
2023-04-13T01:27:01.686Z,2.20
2023-04-13T01:28:01.687Z,2.10
2023-04-13T01:29:02.297Z,3.70
2023-04-13T01:30:01.659Z,2.00
2023-04-13T01:31:01.657Z,1.60
2023-04-13T01:32:01.690Z,2.30
2023-04-13T01:33:01.667Z,3.50
2023-04-13T01:34:01.605Z,3.90
2023-04-13T01:35:01.603Z,2.30
2023-04-13T01:36:01.561Z,3.80
2023-04-13T01:37:01.553Z,3.10
2023-04-13T01:38:01.573Z,2.30
2023-04-13T01:39:01.528Z,3.30
2023-04-13T01:40:01.534Z,2.80
2023-04-13T01:41:01.498Z,2.50
2023-04-13T01:42:01.538Z,2.70
2023-04-13T01:43:01.448Z,2.30
2023-04-13T01:44:01.789Z,4.70
2023-04-13T01:45:01.439Z,2.80
2023-04-13T01:46:01.438Z,3.90
2023-04-13T01:47:01.524Z,1.00
2023-04-13T01:48:01.477Z,2.60
2023-04-13T01:49:01.413Z,2.60
2023-04-13T01:50:01.426Z,4.80
2023-04-13T01:51:01.339Z,3.60
2023-04-13T01:52:01.359Z,3.50
2023-04-13T01:53:01.329Z,5.00
2023-04-13T01:54:01.639Z,3.10
2023-04-13T01:55:01.288Z,3.00
2023-04-13T01:56:01.311Z,1.90
2023-04-13T01:57:01.275Z,2.10
2023-04-13T01:58:01.268Z,1.50
2023-04-13T01:59:01.268Z,2.80
2023-04-13T02:00:01.269Z,3.00
2023-04-13T02:01:01.253Z,2.00
2023-04-13T02:02:01.269Z,3.10
2023-04-13T02:03:01.353Z,3.30
2023-04-13T02:04:01.447Z,3.30
2023-04-13T02:05:01.201Z,1.80
2023-04-13T02:06:01.184Z,2.40
2023-04-13T02:07:01.136Z,2.80
2023-04-13T02:08:01.156Z,1.60
2023-04-13T02:09:01.124Z,3.40
2023-04-13T02:10:01.122Z,3.20
2023-04-13T02:11:01.095Z,2.50
2023-04-13T02:12:01.082Z,4.80
2023-04-13T02:13:01.071Z,2.70
2023-04-13T02:14:01.227Z,2.70
2023-04-13T02:15:01.030Z,4.50
2023-04-13T02:16:01.063Z,3.80
2023-04-13T02:17:00.998Z,5.40
2023-04-13T02:18:01.046Z,2.00
2023-04-13T02:19:00.997Z,4.90
2023-04-13T02:20:00.997Z,3.20
2023-04-13T02:21:00.963Z,3.90
2023-04-13T02:22:00.977Z,2.10
2023-04-13T02:23:00.929Z,6.30
2023-04-13T02:24:01.271Z,3.20
2023-04-13T02:25:00.916Z,5.10
2023-04-13T02:26:00.909Z,5.10
2023-04-13T02:27:00.879Z,2.40
2023-04-13T02:28:00.875Z,2.70
2023-04-13T02:29:00.835Z,3.40
2023-04-13T02:30:00.874Z,1.70
2023-04-13T02:31:00.849Z,3.40
2023-04-13T02:32:00.887Z,3.00
2023-04-13T02:33:00.806Z,5.60
2023-04-13T02:34:01.067Z,4.20
2023-04-13T02:35:00.807Z,6.60
2023-04-13T02:36:00.779Z,3.10
2023-04-13T02:37:00.774Z,4.30
2023-04-13T02:38:00.737Z,4.20
2023-04-13T02:39:00.727Z,4.20
2023-04-13T02:40:00.710Z,3.40
2023-04-13T02:41:00.704Z,2.50
2023-04-13T02:42:00.719Z,4.90
2023-04-13T02:43:00.660Z,3.40
2023-04-13T02:44:01.048Z,4.50
2023-04-13T02:45:00.631Z,4.00
2023-04-13T02:46:00.692Z,5.10
2023-04-13T02:47:00.622Z,3.90
2023-04-13T02:48:00.612Z,3.90
2023-04-13T02:49:00.574Z,2.90
2023-04-13T02:50:00.570Z,1.90
2023-04-13T02:51:00.546Z,4.40
2023-04-13T02:52:00.604Z,4.70
2023-04-13T02:53:00.533Z,5.60
2023-04-13T02:54:00.798Z,3.10
2023-04-13T02:55:00.511Z,6.40
2023-04-13T02:56:00.502Z,3.30
2023-04-13T02:57:00.453Z,3.50
2023-04-13T02:58:00.491Z,3.30
2023-04-13T02:59:00.457Z,3.80
2023-04-13T03:00:00.443Z,3.90
2023-04-13T03:01:00.494Z,4.30
2023-04-13T03:02:00.452Z,3.10
2023-04-13T03:03:00.488Z,2.30
2023-04-13T03:04:01.077Z,3.80
2023-04-13T03:05:00.434Z,3.60
2023-04-13T03:06:00.377Z,3.90
2023-04-13T03:07:00.324Z,4.20
2023-04-13T03:08:00.350Z,4.50
2023-04-13T03:09:00.313Z,5.00
2023-04-13T03:10:00.332Z,4.70
2023-04-13T03:11:00.291Z,4.90
2023-04-13T03:12:00.282Z,3.40
2023-04-13T03:13:00.254Z,5.10
2023-04-13T03:14:00.394Z,4.20
2023-04-13T03:15:00.216Z,4.10
2023-04-13T03:16:00.238Z,3.10
2023-04-13T03:17:00.292Z,5.20
2023-04-13T03:18:00.505Z,3.20
2023-04-13T03:19:00.201Z,2.50
2023-04-13T03:20:00.184Z,4.60
2023-04-13T03:21:00.140Z,3.90
2023-04-13T03:22:00.187Z,4.10
2023-04-13T03:23:00.146Z,3.80
2023-04-13T03:24:00.338Z,4.40
2023-04-13T03:25:00.103Z,4.50
2023-04-13T03:26:00.156Z,3.30
2023-04-13T03:27:00.062Z,4.40
2023-04-13T03:28:00.122Z,2.90
2023-04-13T03:29:00.045Z,5.40
2023-04-13T03:30:00.076Z,2.60
2023-04-13T03:31:00.126Z,3.80
2023-04-13T03:32:00.045Z,3.60
2023-04-13T03:33:00.075Z,2.10
2023-04-13T03:34:00.308Z,6.10
2023-04-13T03:34:59.970Z,3.90
2023-04-13T03:35:59.966Z,6.10
2023-04-13T03:36:59.936Z,5.50
2023-04-13T03:37:59.942Z,6.70
2023-04-13T03:38:59.900Z,9.70
2023-04-13T03:39:59.952Z,6.50
2023-04-13T03:40:59.916Z,4.30
2023-04-13T03:41:59.888Z,3.10
2023-04-13T03:42:59.846Z,4.40
2023-04-13T03:44:00.155Z,3.50
2023-04-13T03:44:59.843Z,4.80
2023-04-13T03:45:59.893Z,4.50
2023-04-13T03:46:59.798Z,5.00
2023-04-13T03:47:59.913Z,3.70
2023-04-13T03:48:59.789Z,2.50
2023-04-13T03:49:59.807Z,4.90
2023-04-13T03:50:59.765Z,4.30
2023-04-13T03:51:59.785Z,4.50
2023-04-13T03:52:59.748Z,3.10
2023-04-13T03:54:00.065Z,3.30
2023-04-13T03:54:59.773Z,3.60
2023-04-13T03:55:59.718Z,2.70
2023-04-13T03:56:59.685Z,2.70
2023-04-13T03:57:59.719Z,4.90
2023-04-13T03:58:59.651Z,4.90
2023-04-13T03:59:59.649Z,3.50
2023-04-13T04:00:59.627Z,5.30
2023-04-13T04:01:59.663Z,3.90
2023-04-13T04:02:59.668Z,4.80
2023-04-13T04:03:59.929Z,7.10
2023-04-13T04:04:59.601Z,5.10
2023-04-13T04:05:59.582Z,6.50
2023-04-13T04:06:59.553Z,4.80
2023-04-13T04:07:59.595Z,4.30
2023-04-13T04:08:59.517Z,4.10
2023-04-13T04:09:59.556Z,10.90
2023-04-13T04:10:59.493Z,5.90
2023-04-13T04:11:59.510Z,5.30
2023-04-13T04:12:59.480Z,5.90
2023-04-13T04:13:59.671Z,4.50
2023-04-13T04:14:59.434Z,7.70
2023-04-13T04:15:59.502Z,9.50
2023-04-13T04:16:59.397Z,3.60
2023-04-13T04:17:59.515Z,3.40
2023-04-13T04:18:59.386Z,6.10
2023-04-13T04:19:59.427Z,5.30
2023-04-13T04:20:59.373Z,5.80
2023-04-13T04:21:59.377Z,8.40
2023-04-13T04:22:59.329Z,8.90
2023-04-13T04:23:59.555Z,4.50
2023-04-13T04:24:59.302Z,4.40
2023-04-13T04:25:59.324Z,4.60
2023-04-13T04:26:59.283Z,5.40
2023-04-13T04:27:59.287Z,3.60
2023-04-13T04:28:59.267Z,5.60
2023-04-13T04:29:59.380Z,4.50
2023-04-13T04:30:59.237Z,4.40
2023-04-13T04:31:59.258Z,6.30
2023-04-13T04:32:59.238Z,7.20
2023-04-13T04:33:59.345Z,8.90
2023-04-13T04:34:59.196Z,4.10
2023-04-13T04:35:59.140Z,6.10
2023-04-13T04:37:03.065Z,5.50
2023-04-13T04:37:59.153Z,6.90
2023-04-13T04:38:59.137Z,4.90
2023-04-13T04:39:59.097Z,5.30
2023-04-13T04:40:59.133Z,5.50
2023-04-13T04:41:59.091Z,5.80
2023-04-13T04:42:59.116Z,4.30
2023-04-13T04:43:59.096Z,4.70
2023-04-13T04:44:59.061Z,3.90
2023-04-13T04:45:59.045Z,5.00
2023-04-13T04:46:59.054Z,6.50
2023-04-13T04:47:59.035Z,3.40
2023-04-13T04:48:58.998Z,7.50
2023-04-13T04:49:58.965Z,5.80
2023-04-13T04:50:58.978Z,5.40
2023-04-13T04:51:58.958Z,4.60
2023-04-13T04:52:58.972Z,3.80
2023-04-13T04:53:59.154Z,6.00
2023-04-13T04:54:58.933Z,4.30
2023-04-13T04:55:58.905Z,6.70
2023-04-13T04:56:58.909Z,4.10
2023-04-13T04:57:58.887Z,5.90
2023-04-13T04:58:59.013Z,7.90
2023-04-13T04:59:58.843Z,6.90
2023-04-13T05:00:58.874Z,5.60
2023-04-13T05:01:58.837Z,6.60
2023-04-13T05:02:58.931Z,3.30
2023-04-13T05:03:58.791Z,7.80
2023-04-13T05:04:58.853Z,8.40
2023-04-13T05:05:58.797Z,7.60
2023-04-13T05:06:58.758Z,6.30
2023-04-13T05:07:58.798Z,9.70
2023-04-13T05:08:58.915Z,8.60
2023-04-13T05:09:58.708Z,5.40
2023-04-13T05:10:58.733Z,6.00
2023-04-13T05:11:58.687Z,9.60
2023-04-13T05:12:58.723Z,10.00
2023-04-13T05:13:58.664Z,5.60
2023-04-13T05:14:58.685Z,7.50
2023-04-13T05:15:58.696Z,5.90
2023-04-13T05:16:58.663Z,7.00
2023-04-13T05:17:58.694Z,5.80
2023-04-13T05:18:58.946Z,6.40
2023-04-13T05:19:58.594Z,7.10
2023-04-13T05:20:58.588Z,5.60
2023-04-13T05:21:58.545Z,5.40
2023-04-13T05:22:58.593Z,5.70
2023-04-13T05:23:58.548Z,4.50
2023-04-13T05:24:58.542Z,5.80
2023-04-13T05:25:58.497Z,4.80
2023-04-13T05:26:58.500Z,11.20
2023-04-13T05:27:58.490Z,3.90
2023-04-13T05:28:58.713Z,7.50
2023-04-13T05:29:58.467Z,5.60
2023-04-13T05:30:58.449Z,5.90
2023-04-13T05:31:58.482Z,4.40
2023-04-13T05:32:58.495Z,7.50
2023-04-13T05:33:58.397Z,9.70
2023-04-13T05:34:58.434Z,5.80
2023-04-13T05:35:58.379Z,8.40
2023-04-13T05:36:58.378Z,7.60
2023-04-13T05:37:58.344Z,4.60
2023-04-13T05:38:58.586Z,5.40
2023-04-13T05:39:58.332Z,5.60
2023-04-13T05:40:58.341Z,6.00
2023-04-13T05:41:58.285Z,7.10
2023-04-13T05:42:58.289Z,7.30
2023-04-13T05:43:58.254Z,7.00
2023-04-13T05:44:58.260Z,6.00
2023-04-13T05:45:58.325Z,6.70
2023-04-13T05:46:58.263Z,7.90
2023-04-13T05:47:58.231Z,7.80
2023-04-13T05:48:58.470Z,5.10
2023-04-13T05:49:58.183Z,7.50
2023-04-13T05:50:58.202Z,6.00
2023-04-13T05:51:58.181Z,7.10
2023-04-13T05:52:58.168Z,6.70
2023-04-13T05:53:58.122Z,7.20
2023-04-13T05:54:58.139Z,7.20
2023-04-13T05:55:58.136Z,7.70
2023-04-13T05:56:58.101Z,6.00
2023-04-13T05:57:58.092Z,5.60
2023-04-13T05:58:58.364Z,8.00
2023-04-13T05:59:58.056Z,6.90
2023-04-13T06:00:58.086Z,7.20
2023-04-13T06:01:58.111Z,5.10
2023-04-13T06:02:58.234Z,6.00
2023-04-13T06:03:58.147Z,5.00
2023-04-13T06:04:58.058Z,9.00
2023-04-13T06:05:57.973Z,6.00
2023-04-13T06:06:57.990Z,6.50
2023-04-13T06:07:57.931Z,6.90
2023-04-13T06:08:58.225Z,6.60
2023-04-13T06:09:57.928Z,7.50
2023-04-13T06:10:57.948Z,6.20
2023-04-13T06:11:57.904Z,8.00
2023-04-13T06:12:57.916Z,6.20
2023-04-13T06:13:59.950Z,7.00
2023-04-13T06:14:57.879Z,6.70
2023-04-13T06:15:57.844Z,7.00
2023-04-13T06:16:57.885Z,7.10
2023-04-13T06:17:57.885Z,8.40
2023-04-13T06:18:58.113Z,6.40
2023-04-13T06:19:57.773Z,6.40
2023-04-13T06:20:57.810Z,6.10
2023-04-13T06:21:57.765Z,9.70
2023-04-13T06:22:57.788Z,6.20
2023-04-13T06:23:57.747Z,4.30
2023-04-13T06:24:57.731Z,7.30
2023-04-13T06:25:57.704Z,8.60
2023-04-13T06:26:57.718Z,7.30
2023-04-13T06:27:57.686Z,6.80
2023-04-13T06:28:57.933Z,7.50
2023-04-13T06:29:57.650Z,9.50
2023-04-13T06:30:57.762Z,8.00
2023-04-13T06:31:57.631Z,4.80
2023-04-13T06:32:57.660Z,6.80
2023-04-13T06:33:57.619Z,7.30
2023-04-13T06:34:57.618Z,7.50
2023-04-13T06:35:57.586Z,6.80
2023-04-13T06:36:57.603Z,4.60
2023-04-13T06:37:57.540Z,9.10
2023-04-13T06:38:57.891Z,5.00
2023-04-13T06:39:57.545Z,8.60
2023-04-13T06:40:57.539Z,5.60
2023-04-13T06:41:57.504Z,8.10
2023-04-13T06:42:57.537Z,7.20
2023-04-13T06:43:57.473Z,7.80
2023-04-13T06:44:57.517Z,6.20
2023-04-13T06:45:57.492Z,7.60
2023-04-13T06:46:57.619Z,6.30
2023-04-13T06:47:57.524Z,17.20
2023-04-13T06:48:57.586Z,10.30
2023-04-13T06:49:57.397Z,13.50
2023-04-13T06:50:57.441Z,12.90
2023-04-13T06:51:57.398Z,8.30
2023-04-13T06:52:59.468Z,8.00
2023-04-13T06:53:57.326Z,8.10
2023-04-13T06:54:57.348Z,13.10
2023-04-13T06:55:57.329Z,7.70
2023-04-13T06:56:57.329Z,10.70
2023-04-13T06:57:57.299Z,11.30
2023-04-13T06:58:58.032Z,7.70
2023-04-13T06:59:57.288Z,8.80
2023-04-13T07:00:57.300Z,13.50
2023-04-13T07:01:57.301Z,10.50
2023-04-13T07:02:57.483Z,9.20
2023-04-13T07:03:57.293Z,10.20
2023-04-13T07:04:57.274Z,8.60
2023-04-13T07:05:57.187Z,6.60
2023-04-13T07:06:57.211Z,7.90
2023-04-13T07:07:57.205Z,10.30
2023-04-13T07:08:57.372Z,7.60
2023-04-13T07:09:58.879Z,6.10
2023-04-13T07:10:57.166Z,12.30
2023-04-13T07:11:57.107Z,6.40
2023-04-13T07:12:57.188Z,8.20
2023-04-13T07:13:57.073Z,6.30
2023-04-13T07:14:57.106Z,8.30
2023-04-13T07:15:57.085Z,8.60
2023-04-13T07:16:57.078Z,4.50
2023-04-13T07:17:57.142Z,6.90
2023-04-13T07:18:57.260Z,6.50
2023-04-13T07:19:57.004Z,8.90
2023-04-13T07:20:57.013Z,8.00
2023-04-13T07:21:56.951Z,4.80
2023-04-13T07:22:56.988Z,8.60
2023-04-13T07:23:56.970Z,6.00
2023-04-13T07:24:56.955Z,8.10
2023-04-13T07:25:56.907Z,9.40
2023-04-13T07:26:56.950Z,7.50
2023-04-13T07:27:56.890Z,8.90
2023-04-13T07:28:57.337Z,9.70
2023-04-13T07:29:56.889Z,7.00
2023-04-13T07:30:56.883Z,7.10
2023-04-13T07:31:56.860Z,9.30
2023-04-13T07:32:56.948Z,8.00
2023-04-13T07:33:56.834Z,6.50
2023-04-13T07:34:56.814Z,6.00
2023-04-13T07:35:56.803Z,9.10
2023-04-13T07:36:56.828Z,10.50
2023-04-13T07:37:56.754Z,10.00
2023-04-13T07:38:56.902Z,7.10
2023-04-13T07:39:56.761Z,10.40
2023-04-13T07:40:56.730Z,5.30
2023-04-13T07:41:56.729Z,9.40
2023-04-13T07:42:56.713Z,11.10
2023-04-13T07:43:56.669Z,4.30
2023-04-13T07:44:56.694Z,10.60
2023-04-13T07:45:56.675Z,11.10
2023-04-13T07:46:56.758Z,7.80
2023-04-13T07:47:56.654Z,7.40
2023-04-13T07:48:56.672Z,8.80
2023-04-13T07:49:56.586Z,7.80
2023-04-13T07:50:56.642Z,9.00
2023-04-13T07:51:56.574Z,10.40
2023-04-13T07:52:56.583Z,9.90
2023-04-13T07:53:56.554Z,9.90
2023-04-13T07:54:56.577Z,8.40
2023-04-13T07:55:56.512Z,7.30
2023-04-13T07:56:56.545Z,8.80
2023-04-13T07:57:56.501Z,9.70
2023-04-13T07:58:56.587Z,10.80
2023-04-13T07:59:56.475Z,11.80
2023-04-13T08:00:56.470Z,11.60
2023-04-13T08:01:56.478Z,7.70
2023-04-13T08:02:56.582Z,8.10
2023-04-13T08:03:56.522Z,12.10
2023-04-13T08:04:56.539Z,10.80
2023-04-13T08:05:56.395Z,7.80
2023-04-13T08:06:56.380Z,12.40
2023-04-13T08:07:56.377Z,8.60
2023-04-13T08:08:56.367Z,10.00
2023-04-13T08:09:56.319Z,7.70
2023-04-13T08:10:56.383Z,9.80
2023-04-13T08:11:56.343Z,11.50
2023-04-13T08:12:56.342Z,13.20
2023-04-13T08:13:56.268Z,10.70
2023-04-13T08:14:56.321Z,10.20
2023-04-13T08:15:56.259Z,13.20
2023-04-13T08:16:56.431Z,7.20
2023-04-13T08:17:56.288Z,11.10
2023-04-13T08:18:56.244Z,7.00
2023-04-13T08:19:56.206Z,12.90
2023-04-13T08:20:56.218Z,11.70
2023-04-13T08:21:56.198Z,11.10
2023-04-13T08:22:56.186Z,9.50
2023-04-13T08:23:56.142Z,14.10
2023-04-13T08:24:56.190Z,11.60
2023-04-13T08:25:56.160Z,13.60
2023-04-13T08:26:56.152Z,9.60
2023-04-13T08:27:56.123Z,10.00
2023-04-13T08:28:56.119Z,12.40
2023-04-13T08:29:56.075Z,10.30
2023-04-13T08:30:56.072Z,9.20
2023-04-13T08:31:56.148Z,11.10
2023-04-13T08:32:56.108Z,12.20
2023-04-13T08:33:57.597Z,11.10
2023-04-13T08:34:56.039Z,9.00
2023-04-13T08:35:55.989Z,10.60
2023-04-13T08:36:56.001Z,13.50
2023-04-13T08:37:55.990Z,13.60
2023-04-13T08:38:55.992Z,9.10
2023-04-13T08:39:55.962Z,8.40
2023-04-13T08:40:55.990Z,9.40
2023-04-13T08:41:55.896Z,11.60
2023-04-13T08:42:55.914Z,11.70
2023-04-13T08:43:55.911Z,10.80
2023-04-13T08:44:55.918Z,11.70
2023-04-13T08:45:55.901Z,9.90
2023-04-13T08:46:55.878Z,10.30
2023-04-13T08:47:55.871Z,10.50
2023-04-13T08:48:56.026Z,10.60
2023-04-13T08:49:55.818Z,9.80
2023-04-13T08:50:55.824Z,12.00
2023-04-13T08:51:55.791Z,11.10
2023-04-13T08:52:55.777Z,13.20
2023-04-13T08:53:56.147Z,12.70
2023-04-13T08:54:55.786Z,9.30
2023-04-13T08:55:55.761Z,15.40
2023-04-13T08:56:55.720Z,15.30
2023-04-13T08:57:55.720Z,12.10
2023-04-13T08:58:55.701Z,12.00
2023-04-13T08:59:55.709Z,11.80
2023-04-13T09:00:55.682Z,13.20
2023-04-13T09:01:55.726Z,16.20
2023-04-13T09:03:03.874Z,11.80
2023-04-13T09:03:55.844Z,12.90
2023-04-13T09:04:55.707Z,12.10
2023-04-13T09:05:55.614Z,10.40
2023-04-13T09:06:55.650Z,10.60
2023-04-13T09:07:55.587Z,11.60
2023-04-13T09:08:55.596Z,11.80
2023-04-13T09:09:55.558Z,15.00
2023-04-13T09:10:55.519Z,9.20
2023-04-13T09:11:55.573Z,10.80
2023-04-13T09:12:55.506Z,10.50
2023-04-13T09:13:55.516Z,10.80
2023-04-13T09:14:55.490Z,10.20
2023-04-13T09:15:55.478Z,10.50
2023-04-13T09:16:55.461Z,11.00
2023-04-13T09:17:55.490Z,15.80
2023-04-13T09:18:55.428Z,12.10
2023-04-13T09:19:55.425Z,12.00
2023-04-13T09:20:55.374Z,13.30
2023-04-13T09:21:55.422Z,14.70
2023-04-13T09:22:55.381Z,13.40
2023-04-13T09:23:55.377Z,15.40
2023-04-13T09:24:55.336Z,11.50
2023-04-13T09:25:55.344Z,10.80
2023-04-13T09:26:55.326Z,14.60
2023-04-13T09:27:55.323Z,14.40
2023-04-13T09:28:56.099Z,16.20
2023-04-13T09:29:55.297Z,13.20
2023-04-13T09:30:55.268Z,15.00
2023-04-13T09:31:55.298Z,12.20
2023-04-13T09:32:55.312Z,12.50
2023-04-13T09:33:55.247Z,13.30
2023-04-13T09:34:55.228Z,10.90
2023-04-13T09:35:55.221Z,16.80
2023-04-13T09:36:56.802Z,13.20
2023-04-13T09:37:55.201Z,9.80
2023-04-13T09:38:55.178Z,12.90
2023-04-13T09:39:55.210Z,12.00
2023-04-13T09:40:55.123Z,12.60
2023-04-13T09:41:55.209Z,12.70
2023-04-13T09:42:55.099Z,12.80
2023-04-13T09:43:55.124Z,9.40
2023-04-13T09:44:55.082Z,10.00
2023-04-13T09:45:55.130Z,10.30
2023-04-13T09:46:55.085Z,10.70
2023-04-13T09:47:55.116Z,11.10
2023-04-13T09:48:55.044Z,10.90
2023-04-13T09:49:55.037Z,9.90
2023-04-13T09:50:55.028Z,8.90
2023-04-13T09:51:55.022Z,10.40
2023-04-13T09:52:55.010Z,12.30
2023-04-13T09:53:54.984Z,12.60
2023-04-13T09:54:54.963Z,11.50
2023-04-13T09:55:54.976Z,8.60
2023-04-13T09:56:54.932Z,13.50
2023-04-13T09:57:54.932Z,9.30
2023-04-13T09:58:54.905Z,9.70
2023-04-13T09:59:54.896Z,11.30
2023-04-13T10:00:54.900Z,9.00
2023-04-13T10:01:55.038Z,10.10
2023-04-13T10:02:54.913Z,11.00
2023-04-13T10:03:54.890Z,12.30
2023-04-13T10:04:54.861Z,8.70
2023-04-13T10:06:00.209Z,10.80
2023-04-13T10:06:54.809Z,7.50
2023-04-13T10:07:54.783Z,8.60
2023-04-13T10:08:54.767Z,9.70
2023-04-13T10:09:54.768Z,14.70
2023-04-13T10:10:54.753Z,9.00
2023-04-13T10:11:54.758Z,10.50
2023-04-13T10:12:54.711Z,9.00
2023-04-13T10:13:54.713Z,9.40
2023-04-13T10:14:54.679Z,9.80
2023-04-13T10:15:55.361Z,11.80
2023-04-13T10:16:54.643Z,10.90
2023-04-13T10:17:54.779Z,13.10
2023-04-13T10:18:54.611Z,10.40
2023-04-13T10:19:54.669Z,13.60
2023-04-13T10:20:54.609Z,8.40
2023-04-13T10:21:54.877Z,7.70
2023-04-13T10:22:54.567Z,12.20
2023-04-13T10:23:54.581Z,9.80
2023-04-13T10:24:54.535Z,12.50
2023-04-13T10:25:54.588Z,9.50
2023-04-13T10:26:54.522Z,8.60
2023-04-13T10:27:54.547Z,12.00
2023-04-13T10:28:54.506Z,8.70
2023-04-13T10:29:54.504Z,12.90
2023-04-13T10:30:54.489Z,10.40
2023-04-13T10:31:54.584Z,13.00
2023-04-13T10:32:54.454Z,7.80
2023-04-13T10:33:54.488Z,8.60
2023-04-13T10:34:54.417Z,8.70
2023-04-13T10:35:54.422Z,9.50
2023-04-13T10:36:54.401Z,9.70
2023-04-13T10:37:54.392Z,12.10
2023-04-13T10:38:54.337Z,9.60
2023-04-13T10:39:54.366Z,10.20
2023-04-13T10:40:54.320Z,7.10
2023-04-13T10:41:54.349Z,12.10
2023-04-13T10:42:54.313Z,9.60
2023-04-13T10:43:54.330Z,13.30
2023-04-13T10:44:54.265Z,10.10
2023-04-13T10:45:54.276Z,9.70
2023-04-13T10:46:54.246Z,9.90
2023-04-13T10:47:54.377Z,7.00
2023-04-13T10:48:54.216Z,8.70
2023-04-13T10:49:54.234Z,10.00
2023-04-13T10:50:54.197Z,12.10
2023-04-13T10:51:54.239Z,9.30
2023-04-13T10:52:54.145Z,11.20
2023-04-13T10:53:54.162Z,6.80
2023-04-13T10:54:54.127Z,8.50
2023-04-13T10:55:54.149Z,10.20
2023-04-13T10:56:54.138Z,9.70
2023-04-13T10:57:54.119Z,8.80
2023-04-13T10:58:54.109Z,10.90
2023-04-13T10:59:58.813Z,7.60
2023-04-13T11:00:54.059Z,6.90
2023-04-13T11:01:54.135Z,9.60
2023-04-13T11:02:54.174Z,5.40
2023-04-13T11:04:04.385Z,10.10
2023-04-13T11:04:54.164Z,6.40
2023-04-13T11:05:54.025Z,9.30
2023-04-13T11:06:53.966Z,4.80
2023-04-13T11:07:55.648Z,5.60
2023-04-13T11:08:54.004Z,8.60
2023-04-13T11:09:53.973Z,5.60
2023-04-13T11:10:53.989Z,5.60
2023-04-13T11:11:53.931Z,8.30
2023-04-13T11:12:53.891Z,7.30
2023-04-13T11:13:53.925Z,7.20
2023-04-13T11:14:53.900Z,8.70
2023-04-13T11:15:53.921Z,5.70
2023-04-13T11:16:58.488Z,7.50
2023-04-13T11:17:53.936Z,8.10
2023-04-13T11:18:53.840Z,4.60
2023-04-13T11:19:53.867Z,10.70
2023-04-13T11:20:53.812Z,7.70
2023-04-13T11:21:53.809Z,7.80
2023-04-13T11:22:53.770Z,7.10
2023-04-13T11:23:53.800Z,7.90
2023-04-13T11:24:53.737Z,8.50
2023-04-13T11:25:53.776Z,8.30
2023-04-13T11:26:53.738Z,7.10
2023-04-13T11:27:53.741Z,8.30
2023-04-13T11:28:53.691Z,8.00
2023-04-13T11:29:53.698Z,8.90
2023-04-13T11:30:53.673Z,7.60
2023-04-13T11:31:53.767Z,5.60
2023-04-13T11:32:53.654Z,8.80
2023-04-13T11:33:53.637Z,5.50
2023-04-13T11:34:53.608Z,5.30
2023-04-13T11:35:53.653Z,6.40
2023-04-13T11:36:53.644Z,8.20
2023-04-13T11:37:53.612Z,5.70
2023-04-13T11:38:53.575Z,6.00
2023-04-13T11:39:53.560Z,5.40
2023-04-13T11:41:01.725Z,6.20
2023-04-13T11:41:53.510Z,7.20
2023-04-13T11:42:53.554Z,7.80
2023-04-13T11:43:53.522Z,7.30
2023-04-13T11:44:53.473Z,8.50
2023-04-13T11:45:53.518Z,7.70
2023-04-13T11:46:53.439Z,10.20
2023-04-13T11:47:53.542Z,8.30
2023-04-13T11:48:53.398Z,7.10
2023-04-13T11:49:53.418Z,7.50
2023-04-13T11:50:53.371Z,5.60
2023-04-13T11:51:53.448Z,8.90
2023-04-13T11:52:53.343Z,9.80
2023-04-13T11:53:53.371Z,5.90
2023-04-13T11:54:53.319Z,6.80
2023-04-13T11:55:53.943Z,7.90
2023-04-13T11:56:53.288Z,7.00
2023-04-13T11:57:53.310Z,6.80
2023-04-13T11:58:53.388Z,10.20
2023-04-13T11:59:53.269Z,7.50
2023-04-13T12:00:53.242Z,10.70
2023-04-13T12:02:01.914Z,10.50
2023-04-13T12:03:01.681Z,7.10
2023-04-13T12:04:04.578Z,9.30
2023-04-13T12:04:53.354Z,8.00
2023-04-13T12:05:53.358Z,7.60
2023-04-13T12:06:53.334Z,8.40
2023-04-13T12:07:53.533Z,9.80
2023-04-13T12:08:57.726Z,7.00
2023-04-13T12:09:56.627Z,9.70
2023-04-13T12:12:11.766Z,8.00
2023-04-13T12:12:56.769Z,7.30
2023-04-13T12:14:06.638Z,6.30
2023-04-13T12:15:04.693Z,6.10
2023-04-13T12:16:06.065Z,4.60
2023-04-13T12:18:54.967Z,4.50
2023-04-13T12:19:54.610Z,5.80
2023-04-13T12:20:53.036Z,4.10
2023-04-13T12:21:53.454Z,5.60
2023-04-13T12:23:00.385Z,3.40
2023-04-13T12:23:53.124Z,4.90
2023-04-13T12:24:53.616Z,3.20
2023-04-13T12:25:54.531Z,3.30
2023-04-13T12:27:52.920Z,5.10
2023-04-13T12:28:52.861Z,7.00
2023-04-13T12:29:52.887Z,4.70
2023-04-13T12:30:52.864Z,7.40
2023-04-13T12:31:52.996Z,5.00
2023-04-13T12:32:52.866Z,10.10
2023-04-13T12:33:52.822Z,7.40
2023-04-13T12:34:52.797Z,6.10
2023-04-13T12:35:52.852Z,8.70
2023-04-13T12:36:52.757Z,8.30
2023-04-13T12:37:53.746Z,7.40
2023-04-13T12:38:52.738Z,6.60
2023-04-13T12:39:52.847Z,5.00
2023-04-13T12:40:52.711Z,8.10
2023-04-13T12:41:52.738Z,9.70
2023-04-13T12:42:52.733Z,9.40
2023-04-13T12:43:52.711Z,10.10
2023-04-13T12:44:52.667Z,7.80
2023-04-13T12:45:52.678Z,6.90
2023-04-13T12:46:52.688Z,9.10
2023-04-13T12:47:52.747Z,8.00
2023-04-13T12:48:52.639Z,6.00
2023-04-13T12:49:52.603Z,6.50
2023-04-13T12:50:52.600Z,9.50
2023-04-13T12:51:52.584Z,6.10
2023-04-13T12:52:52.544Z,7.50
2023-04-13T12:53:52.573Z,10.60
2023-04-13T12:54:52.507Z,6.50
2023-04-13T12:55:52.539Z,8.70
2023-04-13T12:56:52.488Z,10.10
2023-04-13T12:57:52.517Z,7.40
2023-04-13T12:58:52.463Z,8.80
2023-04-13T12:59:52.499Z,7.10
2023-04-13T13:00:52.475Z,8.50
2023-04-13T13:01:52.493Z,7.80
2023-04-13T13:02:59.661Z,6.10
2023-04-13T13:03:52.529Z,7.00
2023-04-13T13:04:52.489Z,7.50
2023-04-13T13:05:52.384Z,7.50
2023-04-13T13:06:52.346Z,7.20
2023-04-13T13:07:52.389Z,9.10
2023-04-13T13:08:52.337Z,6.70
2023-04-13T13:09:52.376Z,10.40
2023-04-13T13:10:52.409Z,7.30
2023-04-13T13:11:52.317Z,6.20
2023-04-13T13:12:52.263Z,11.10
2023-04-13T13:13:52.297Z,6.20
2023-04-13T13:14:52.267Z,6.60
2023-04-13T13:15:52.251Z,6.60
2023-04-13T13:16:52.292Z,6.20